sensor_id;sensor_type;location;lat;lon;timestamp;pressure;altitude;pressure_sealevel;temperature;humidity
64933;BME280;51446;53.850;10.662;2023-10-08T00:01:34;101914.00;;;9.98;100.00
64933;BME280;51446;53.850;10.662;2023-10-08T00:03:59;101927.72;;;10.15;100.00
64933;BME280;51446;53.850;10.662;2023-10-08T00:06:27;101935.88;;;9.98;100.00
64933;BME280;51446;53.850;10.662;2023-10-08T00:08:53;101936.75;;;9.99;100.00
64933;BME280;51446;53.850;10.662;2023-10-08T00:11:25;101934.13;;;9.99;100.00
64933;BME280;51446;53.850;10.662;2023-10-08T00:13:50;101953.03;;;9.90;100.00
64933;BME280;51446;53.850;10.662;2023-10-08T00:16:16;101950.91;;;10.04;100.00
64933;BME280;51446;53.850;10.662;2023-10-08T00:18:42;101952.44;;;9.97;100.00
64933;BME280;51446;53.850;10.662;2023-10-08T00:21:14;101959.91;;;10.11;100.00
64933;BME280;51446;53.850;10.662;2023-10-08T00:23:40;101962.50;;;9.86;100.00
64933;BME280;51446;53.850;10.662;2023-10-08T00:26:08;101952.88;;;9.85;100.00
64933;BME280;51446;53.850;10.662;2023-10-08T00:28:33;101968.69;;;9.88;100.00
64933;BME280;51446;53.850;10.662;2023-10-08T00:30:58;101971.31;;;9.88;100.00
64933;BME280;51446;53.850;10.662;2023-10-08T00:33:37;101979.19;;;9.88;100.00
64933;BME280;51446;53.850;10.662;2023-10-08T00:36:02;101980.22;;;9.94;100.00
64933;BME280;51446;53.850;10.662;2023-10-08T00:38:42;101993.94;;;9.86;100.00
64933;BME280;51446;53.850;10.662;2023-10-08T00:41:13;102003.53;;;9.86;100.00
64933;BME280;51446;53.850;10.662;2023-10-08T00:43:39;102012.28;;;9.86;100.00
64933;BME280;51446;53.850;10.662;2023-10-08T00:46:07;102031.16;;;9.78;100.00
64933;BME280;51446;53.850;10.662;2023-10-08T00:48:47;102021.38;;;9.73;100.00
64933;BME280;51446;53.850;10.662;2023-10-08T00:51:13;102029.44;;;9.78;100.00
64933;BME280;51446;53.850;10.662;2023-10-08T00:54:14;102016.84;;;9.92;100.00
64933;BME280;51446;53.850;10.662;2023-10-08T00:56:46;102029.63;;;9.83;100.00
64933;BME280;51446;53.850;10.662;2023-10-08T00:59:11;102024.50;;;9.86;100.00
64933;BME280;51446;53.850;10.662;2023-10-08T01:01:42;102021.38;;;9.73;100.00
64933;BME280;51446;53.850;10.662;2023-10-08T01:04:15;102011.09;;;9.78;100.00
64933;BME280;51446;53.850;10.662;2023-10-08T01:06:41;102010.06;;;9.75;100.00
64933;BME280;51446;53.850;10.662;2023-10-08T01:09:06;102019.41;;;9.90;100.00
64933;BME280;51446;53.850;10.662;2023-10-08T01:11:43;102032.41;;;9.87;100.00
64933;BME280;51446;53.850;10.662;2023-10-08T01:14:15;102035.06;;;9.66;100.00
64933;BME280;51446;53.850;10.662;2023-10-08T01:16:40;102036.97;;;9.70;100.00
64933;BME280;51446;53.850;10.662;2023-10-08T01:19:11;102060.66;;;9.73;100.00
64933;BME280;51446;53.850;10.662;2023-10-08T01:21:39;102057.56;;;9.61;100.00
64933;BME280;51446;53.850;10.662;2023-10-08T01:24:07;102023.00;;;9.70;100.00
64933;BME280;51446;53.850;10.662;2023-10-08T01:26:35;102026.94;;;9.81;100.00
64933;BME280;51446;53.850;10.662;2023-10-08T01:29:08;102025.97;;;9.57;100.00
64933;BME280;51446;53.850;10.662;2023-10-08T01:31:33;102034.47;;;9.73;100.00
64933;BME280;51446;53.850;10.662;2023-10-08T01:33:59;102041.94;;;9.63;100.00
64933;BME280;51446;53.850;10.662;2023-10-08T01:36:25;102050.47;;;9.59;100.00
64933;BME280;51446;53.850;10.662;2023-10-08T01:38:51;102054.03;;;9.61;100.00
64933;BME280;51446;53.850;10.662;2023-10-08T01:41:19;102045.09;;;9.77;100.00
64933;BME280;51446;53.850;10.662;2023-10-08T01:43:45;102042.75;;;9.62;100.00
64933;BME280;51446;53.850;10.662;2023-10-08T01:46:11;102048.09;;;9.65;100.00
64933;BME280;51446;53.850;10.662;2023-10-08T01:48:40;102036.38;;;9.78;100.00
64933;BME280;51446;53.850;10.662;2023-10-08T01:51:06;102036.69;;;9.63;100.00
64933;BME280;51446;53.850;10.662;2023-10-08T01:53:37;102036.22;;;9.73;100.00
64933;BME280;51446;53.850;10.662;2023-10-08T01:56:03;102018.47;;;9.66;100.00
64933;BME280;51446;53.850;10.662;2023-10-08T01:58:29;102020.38;;;9.70;100.00
64933;BME280;51446;53.850;10.662;2023-10-08T02:00:55;102038.28;;;9.59;100.00
64933;BME280;51446;53.850;10.662;2023-10-08T02:03:24;102044.94;;;9.51;100.00
64933;BME280;51446;53.850;10.662;2023-10-08T02:05:49;102031.53;;;9.43;100.00
64933;BME280;51446;53.850;10.662;2023-10-08T02:08:18;102041.16;;;9.65;100.00
64933;BME280;51446;53.850;10.662;2023-10-08T02:10:44;102052.16;;;9.57;100.00
64933;BME280;51446;53.850;10.662;2023-10-08T02:13:12;102053.94;;;9.58;100.00
64933;BME280;51446;53.850;10.662;2023-10-08T02:15:44;102058.16;;;9.54;100.00
64933;BME280;51446;53.850;10.662;2023-10-08T02:18:09;102042.34;;;9.51;100.00
64933;BME280;51446;53.850;10.662;2023-10-08T02:20:34;102036.22;;;9.73;100.00
64933;BME280;51446;53.850;10.662;2023-10-08T02:23:00;102034.19;;;9.66;100.00
64933;BME280;51446;53.850;10.662;2023-10-08T02:25:26;102043.72;;;9.64;100.00
64933;BME280;51446;53.850;10.662;2023-10-08T02:27:51;102048.50;;;9.53;100.00
64933;BME280;51446;53.850;10.662;2023-10-08T02:30:17;102057.19;;;9.52;100.00
64933;BME280;51446;53.850;10.662;2023-10-08T02:32:43;102068.06;;;9.40;100.00
64933;BME280;51446;53.850;10.662;2023-10-08T02:35:09;102062.56;;;9.34;100.00
64933;BME280;51446;53.850;10.662;2023-10-08T02:37:36;102066.00;;;9.33;100.00
64933;BME280;51446;53.850;10.662;2023-10-08T02:40:08;102082.84;;;9.18;100.00
64933;BME280;51446;53.850;10.662;2023-10-08T02:42:41;102085.28;;;9.14;100.00
64933;BME280;51446;53.850;10.662;2023-10-08T02:45:10;102099.25;;;9.14;100.00
64933;BME280;51446;53.850;10.662;2023-10-08T02:47:40;102090.97;;;9.25;100.00
64933;BME280;51446;53.850;10.662;2023-10-08T02:50:06;102094.88;;;9.13;100.00
64933;BME280;51446;53.850;10.662;2023-10-08T02:52:33;102103.47;;;9.32;100.00
64933;BME280;51446;53.850;10.662;2023-10-08T02:54:59;102112.00;;;9.26;100.00
64933;BME280;51446;53.850;10.662;2023-10-08T02:57:25;102105.34;;;9.13;100.00
64933;BME280;51446;53.850;10.662;2023-10-08T02:59:52;102108.16;;;9.18;100.00
64933;BME280;51446;53.850;10.662;2023-10-08T03:02:19;102106.09;;;9.11;100.00
64933;BME280;51446;53.850;10.662;2023-10-08T03:04:45;102115.03;;;9.16;100.00
64933;BME280;51446;53.850;10.662;2023-10-08T03:07:15;102119.94;;;9.08;100.00
64933;BME280;51446;53.850;10.662;2023-10-08T03:09:50;102121.81;;;9.11;100.00
64933;BME280;51446;53.850;10.662;2023-10-08T03:12:17;102129.84;;;9.15;100.00
64933;BME280;51446;53.850;10.662;2023-10-08T03:14:43;102140.75;;;9.05;100.00
64933;BME280;51446;53.850;10.662;2023-10-08T03:17:31;102128.47;;;9.04;100.00
64933;BME280;51446;53.850;10.662;2023-10-08T03:20:02;102125.78;;;9.02;100.00
64933;BME280;51446;53.850;10.662;2023-10-08T03:22:48;102139.63;;;9.00;100.00
64933;BME280;51446;53.850;10.662;2023-10-08T03:25:14;102152.59;;;8.97;100.00
64933;BME280;51446;53.850;10.662;2023-10-08T03:27:45;102133.38;;;8.96;100.00
64933;BME280;51446;53.850;10.662;2023-10-08T03:30:11;102128.09;;;8.95;100.00
64933;BME280;51446;53.850;10.662;2023-10-08T03:32:40;102141.59;;;8.84;100.00
64933;BME280;51446;53.850;10.662;2023-10-08T03:35:07;102145.91;;;8.84;100.00
64933;BME280;51446;53.850;10.662;2023-10-08T03:37:36;102142.94;;;8.76;100.00
64933;BME280;51446;53.850;10.662;2023-10-08T03:40:07;102160.16;;;8.71;100.00
64933;BME280;51446;53.850;10.662;2023-10-08T03:42:47;102168.56;;;8.83;100.00
64933;BME280;51446;53.850;10.662;2023-10-08T03:45:14;102159.31;;;8.72;100.00
64933;BME280;51446;53.850;10.662;2023-10-08T03:47:47;102167.25;;;8.74;100.00
64933;BME280;51446;53.850;10.662;2023-10-08T03:50:27;102166.31;;;8.54;100.00
64933;BME280;51446;53.850;10.662;2023-10-08T03:53:07;102183.72;;;8.53;100.00
64933;BME280;51446;53.850;10.662;2023-10-08T03:55:39;102169.41;;;8.45;100.00
64933;BME280;51446;53.850;10.662;2023-10-08T03:58:06;102181.47;;;8.43;100.00
64933;BME280;51446;53.850;10.662;2023-10-08T04:00:35;102188.13;;;8.54;100.00
64933;BME280;51446;53.850;10.662;2023-10-08T04:03:08;102199.88;;;8.44;100.00
64933;BME280;51446;53.850;10.662;2023-10-08T04:05:37;102195.44;;;8.43;100.00
64933;BME280;51446;53.850;10.662;2023-10-08T04:08:10;102198.72;;;8.39;100.00
64933;BME280;51446;53.850;10.662;2023-10-08T04:10:44;102203.06;;;8.39;100.00
64933;BME280;51446;53.850;10.662;2023-10-08T04:13:10;102203.94;;;8.39;100.00
64933;BME280;51446;53.850;10.662;2023-10-08T04:15:36;102194.00;;;8.48;100.00
64933;BME280;51446;53.850;10.662;2023-10-08T04:18:08;102197.78;;;8.37;100.00
64933;BME280;51446;53.850;10.662;2023-10-08T04:20:33;102207.25;;;8.35;100.00
64933;BME280;51446;53.850;10.662;2023-10-08T04:23:09;102219.50;;;8.36;100.00
64933;BME280;51446;53.850;10.662;2023-10-08T04:25:45;102204.34;;;8.29;100.00
64933;BME280;51446;53.850;10.662;2023-10-08T04:28:12;102205.53;;;8.36;100.00
64933;BME280;51446;53.850;10.662;2023-10-08T04:30:40;102215.81;;;8.32;100.00
64933;BME280;51446;53.850;10.662;2023-10-08T04:33:08;102221.81;;;8.30;100.00
64933;BME280;51446;53.850;10.662;2023-10-08T04:35:37;102211.88;;;8.41;100.00
64933;BME280;51446;53.850;10.662;2023-10-08T04:38:09;102214.34;;;8.38;100.00
64933;BME280;51446;53.850;10.662;2023-10-08T04:40:35;102223.78;;;8.34;100.00
64933;BME280;51446;53.850;10.662;2023-10-08T04:43:13;102221.28;;;8.37;100.00
64933;BME280;51446;53.850;10.662;2023-10-08T04:45:40;102227.06;;;8.30;100.00
64933;BME280;51446;53.850;10.662;2023-10-08T04:48:06;102246.53;;;8.37;100.00
64933;BME280;51446;53.850;10.662;2023-10-08T04:50:37;102237.25;;;8.43;100.00
64933;BME280;51446;53.850;10.662;2023-10-08T04:53:03;102222.78;;;8.32;100.00
64933;BME280;51446;53.850;10.662;2023-10-08T04:55:34;102217.56;;;8.32;100.00
64933;BME280;51446;53.850;10.662;2023-10-08T04:58:00;102218.06;;;8.25;100.00
64933;BME280;51446;53.850;10.662;2023-10-08T05:00:29;102233.38;;;8.17;100.00
64933;BME280;51446;53.850;10.662;2023-10-08T05:03:07;102239.97;;;8.27;100.00
64933;BME280;51446;53.850;10.662;2023-10-08T05:05:42;102240.16;;;8.13;100.00
64933;BME280;51446;53.850;10.662;2023-10-08T05:08:26;102245.91;;;8.06;100.00
64933;BME280;51446;53.850;10.662;2023-10-08T05:10:58;102271.75;;;8.18;100.00
64933;BME280;51446;53.850;10.662;2023-10-08T05:13:40;102264.78;;;8.01;100.00
64933;BME280;51446;53.850;10.662;2023-10-08T05:16:20;102268.38;;;8.03;100.00
64933;BME280;51446;53.850;10.662;2023-10-08T05:19:02;102258.91;;;8.05;100.00
64933;BME280;51446;53.850;10.662;2023-10-08T05:21:49;102269.13;;;8.00;100.00
64933;BME280;51446;53.850;10.662;2023-10-08T05:24:27;102271.97;;;8.05;100.00
64933;BME280;51446;53.850;10.662;2023-10-08T05:27:03;102272.78;;;8.04;100.00
64933;BME280;51446;53.850;10.662;2023-10-08T05:29:48;102265.16;;;7.90;100.00
64933;BME280;51446;53.850;10.662;2023-10-08T05:32:32;102287.09;;;7.94;100.00
64933;BME280;51446;53.850;10.662;2023-10-08T05:35:11;102288.56;;;7.89;100.00
64933;BME280;51446;53.850;10.662;2023-10-08T05:37:58;102297.13;;;7.86;100.00
64933;BME280;51446;53.850;10.662;2023-10-08T05:40:38;102292.06;;;7.89;100.00
64933;BME280;51446;53.850;10.662;2023-10-08T05:43:27;102293.66;;;7.86;100.00
64933;BME280;51446;53.850;10.662;2023-10-08T05:46:19;102298.88;;;7.86;100.00
64933;BME280;51446;53.850;10.662;2023-10-08T05:48:55;102309.63;;;7.92;100.00
64933;BME280;51446;53.850;10.662;2023-10-08T05:51:42;102298.44;;;7.94;100.00
64933;BME280;51446;53.850;10.662;2023-10-08T05:54:25;102301.88;;;7.93;100.00
64933;BME280;51446;53.850;10.662;2023-10-08T05:57:00;102309.03;;;7.97;100.00
64933;BME280;51446;53.850;10.662;2023-10-08T05:59:34;102313.75;;;8.05;100.00
64933;BME280;51446;53.850;10.662;2023-10-08T06:02:19;102310.78;;;8.15;100.00
64933;BME280;51446;53.850;10.662;2023-10-08T06:05:13;102315.22;;;8.16;100.00
64933;BME280;51446;53.850;10.662;2023-10-08T06:10:26;102325.59;;;8.32;100.00
64933;BME280;51446;53.850;10.662;2023-10-08T06:12:58;102323.03;;;8.16;100.00
64933;BME280;51446;53.850;10.662;2023-10-08T06:15:36;102323.81;;;8.31;100.00
64933;BME280;51446;53.850;10.662;2023-10-08T06:18:22;102334.50;;;8.36;100.00
64933;BME280;51446;53.850;10.662;2023-10-08T06:20:57;102347.53;;;8.53;100.00
64933;BME280;51446;53.850;10.662;2023-10-08T06:23:25;102346.34;;;8.64;100.00
64933;BME280;51446;53.850;10.662;2023-10-08T06:25:51;102351.38;;;8.77;100.00
64933;BME280;51446;53.850;10.662;2023-10-08T06:28:22;102352.72;;;8.69;100.00
64933;BME280;51446;53.850;10.662;2023-10-08T06:30:52;102355.22;;;8.49;100.00
64933;BME280;51446;53.850;10.662;2023-10-08T06:33:19;102360.63;;;8.71;100.00
64933;BME280;51446;53.850;10.662;2023-10-08T06:35:45;102359.53;;;8.83;100.00
64933;BME280;51446;53.850;10.662;2023-10-08T06:38:22;102362.25;;;9.23;100.00
64933;BME280;51446;53.850;10.662;2023-10-08T06:40:49;102370.56;;;9.51;100.00
64933;BME280;51446;53.850;10.662;2023-10-08T06:43:17;102360.06;;;9.51;100.00
64933;BME280;51446;53.850;10.662;2023-10-08T06:45:47;102365.63;;;10.37;100.00
64933;BME280;51446;53.850;10.662;2023-10-08T06:48:17;102375.81;;;11.40;100.00
64933;BME280;51446;53.850;10.662;2023-10-08T06:50:49;102375.41;;;12.77;100.00
64933;BME280;51446;53.850;10.662;2023-10-08T06:53:15;102373.63;;;14.25;100.00
64933;BME280;51446;53.850;10.662;2023-10-08T06:55:43;102369.13;;;14.91;100.00
64933;BME280;51446;53.850;10.662;2023-10-08T06:58:08;102384.00;;;15.68;100.00
64933;BME280;51446;53.850;10.662;2023-10-08T07:00:35;102396.72;;;15.43;100.00
64933;BME280;51446;53.850;10.662;2023-10-08T07:03:08;102394.66;;;15.29;100.00
64933;BME280;51446;53.850;10.662;2023-10-08T07:05:36;102398.41;;;16.27;100.00
64933;BME280;51446;53.850;10.662;2023-10-08T07:08:05;102397.41;;;16.20;100.00
64933;BME280;51446;53.850;10.662;2023-10-08T07:10:32;102406.25;;;17.26;97.10
64933;BME280;51446;53.850;10.662;2023-10-08T07:12:59;102408.50;;;16.98;97.91
64933;BME280;51446;53.850;10.662;2023-10-08T07:15:25;102409.91;;;18.03;91.76
64933;BME280;51446;53.850;10.662;2023-10-08T07:17:51;102411.78;;;18.15;94.92
64933;BME280;51446;53.850;10.662;2023-10-08T07:20:16;102410.69;;;17.29;95.78
64933;BME280;51446;53.850;10.662;2023-10-08T07:22:45;102417.72;;;16.70;99.60
64933;BME280;51446;53.850;10.662;2023-10-08T07:25:13;102414.66;;;16.97;99.42
64933;BME280;51446;53.850;10.662;2023-10-08T07:27:40;102416.50;;;17.03;95.42
64933;BME280;51446;53.850;10.662;2023-10-08T07:30:06;102422.25;;;16.77;93.73
64933;BME280;51446;53.850;10.662;2023-10-08T07:32:35;102418.66;;;17.29;93.92
64933;BME280;51446;53.850;10.662;2023-10-08T07:35:04;102430.59;;;17.60;97.50
64933;BME280;51446;53.850;10.662;2023-10-08T07:37:50;102424.94;;;18.05;92.14
64933;BME280;51446;53.850;10.662;2023-10-08T07:40:18;102430.63;;;18.38;88.20
64933;BME280;51446;53.850;10.662;2023-10-08T07:42:45;102430.47;;;19.24;82.92
64933;BME280;51446;53.850;10.662;2023-10-08T07:45:11;102437.47;;;19.10;84.10
64933;BME280;51446;53.850;10.662;2023-10-08T07:47:42;102432.34;;;19.50;76.75
64933;BME280;51446;53.850;10.662;2023-10-08T07:50:08;102434.34;;;19.95;79.02
64933;BME280;51446;53.850;10.662;2023-10-08T07:52:37;102438.56;;;19.48;83.16
64933;BME280;51446;53.850;10.662;2023-10-08T07:55:03;102444.28;;;20.53;72.59
64933;BME280;51446;53.850;10.662;2023-10-08T07:57:31;102460.84;;;19.68;79.66
64933;BME280;51446;53.850;10.662;2023-10-08T07:59:56;102457.53;;;20.28;74.63
64933;BME280;51446;53.850;10.662;2023-10-08T08:02:42;102454.94;;;20.94;72.50
64933;BME280;51446;53.850;10.662;2023-10-08T08:05:07;102453.19;;;21.03;74.77
64933;BME280;51446;53.850;10.662;2023-10-08T08:07:33;102457.59;;;21.38;67.59
64933;BME280;51446;53.850;10.662;2023-10-08T08:09:58;102455.81;;;20.66;71.49
64933;BME280;51446;53.850;10.662;2023-10-08T08:12:24;102463.66;;;21.91;64.97
64933;BME280;51446;53.850;10.662;2023-10-08T08:14:51;102474.44;;;20.28;69.46
64933;BME280;51446;53.850;10.662;2023-10-08T08:17:21;102467.34;;;20.51;69.41
64933;BME280;51446;53.850;10.662;2023-10-08T08:19:49;102465.59;;;20.59;75.39
64933;BME280;51446;53.850;10.662;2023-10-08T08:22:17;102477.19;;;20.73;68.86
64933;BME280;51446;53.850;10.662;2023-10-08T08:24:52;102473.59;;;20.53;73.80
64933;BME280;51446;53.850;10.662;2023-10-08T08:27:20;102481.63;;;21.10;66.69
64933;BME280;51446;53.850;10.662;2023-10-08T08:29:57;102486.97;;;20.76;68.78
64933;BME280;51446;53.850;10.662;2023-10-08T08:32:34;102488.66;;;20.58;75.00
64933;BME280;51446;53.850;10.662;2023-10-08T08:35:00;102492.31;;;21.01;70.20
64933;BME280;51446;53.850;10.662;2023-10-08T08:37:25;102494.88;;;21.81;66.16
64933;BME280;51446;53.850;10.662;2023-10-08T08:39:57;102498.50;;;21.57;63.08
64933;BME280;51446;53.850;10.662;2023-10-08T08:42:22;102487.19;;;22.83;62.47
64933;BME280;51446;53.850;10.662;2023-10-08T08:44:54;102503.75;;;21.85;59.34
64933;BME280;51446;53.850;10.662;2023-10-08T08:47:20;102505.47;;;20.13;65.49
64933;BME280;51446;53.850;10.662;2023-10-08T08:49:50;102503.88;;;21.15;63.35
64933;BME280;51446;53.850;10.662;2023-10-08T08:52:18;102509.97;;;21.83;59.49
64933;BME280;51446;53.850;10.662;2023-10-08T08:54:43;102507.09;;;22.38;58.65
64933;BME280;51446;53.850;10.662;2023-10-08T08:57:10;102506.84;;;22.76;54.71
64933;BME280;51446;53.850;10.662;2023-10-08T08:59:51;102512.72;;;21.68;60.35
64933;BME280;51446;53.850;10.662;2023-10-08T09:02:18;102519.63;;;20.02;66.92
64933;BME280;51446;53.850;10.662;2023-10-08T09:04:43;102519.41;;;19.71;64.76
64933;BME280;51446;53.850;10.662;2023-10-08T09:07:11;102517.19;;;21.15;59.82
64933;BME280;51446;53.850;10.662;2023-10-08T09:09:37;102520.47;;;22.28;57.44
64933;BME280;51446;53.850;10.662;2023-10-08T09:12:05;102525.53;;;22.81;54.72
64933;BME280;51446;53.850;10.662;2023-10-08T09:14:31;102528.19;;;22.82;52.21
64933;BME280;51446;53.850;10.662;2023-10-08T09:17:00;102529.34;;;22.40;52.59
64933;BME280;51446;53.850;10.662;2023-10-08T09:19:26;102527.84;;;21.61;54.22
64933;BME280;51446;53.850;10.662;2023-10-08T09:22:05;102527.59;;;22.29;50.94
64933;BME280;51446;53.850;10.662;2023-10-08T09:24:35;102537.34;;;22.49;49.59
64933;BME280;51446;53.850;10.662;2023-10-08T09:27:08;102541.16;;;21.77;50.33
64933;BME280;51446;53.850;10.662;2023-10-08T09:29:35;102542.75;;;22.30;48.59
64933;BME280;51446;53.850;10.662;2023-10-08T09:32:11;102545.63;;;21.47;53.41
64933;BME280;51446;53.850;10.662;2023-10-08T09:34:38;102549.88;;;22.27;50.81
64933;BME280;51446;53.850;10.662;2023-10-08T09:37:04;102563.88;;;19.82;52.43
64933;BME280;51446;53.850;10.662;2023-10-08T09:39:30;102554.53;;;20.90;52.16
64933;BME280;51446;53.850;10.662;2023-10-08T09:42:00;102551.00;;;20.99;52.14
64933;BME280;51446;53.850;10.662;2023-10-08T09:44:25;102555.63;;;23.08;44.05
64933;BME280;51446;53.850;10.662;2023-10-08T09:47:02;102561.13;;;22.91;42.97
64933;BME280;51446;53.850;10.662;2023-10-08T09:49:39;102557.75;;;22.62;46.53
64933;BME280;51446;53.850;10.662;2023-10-08T09:52:08;102557.81;;;22.53;47.67
64933;BME280;51446;53.850;10.662;2023-10-08T09:57:05;102555.06;;;22.62;44.24
64933;BME280;51446;53.850;10.662;2023-10-08T09:59:32;102561.31;;;22.61;41.99
64933;BME280;51446;53.850;10.662;2023-10-08T10:01:59;102558.97;;;21.08;47.30
64933;BME280;51446;53.850;10.662;2023-10-08T10:04:25;102571.34;;;20.60;50.30
64933;BME280;51446;53.850;10.662;2023-10-08T10:06:50;102567.31;;;19.65;49.79
64933;BME280;51446;53.850;10.662;2023-10-08T10:09:26;102566.75;;;20.28;46.38
64933;BME280;51446;53.850;10.662;2023-10-08T10:11:52;102561.59;;;20.67;46.98
64933;BME280;51446;53.850;10.662;2023-10-08T10:14:21;102559.88;;;21.27;44.94
64933;BME280;51446;53.850;10.662;2023-10-08T10:17:10;102551.63;;;22.43;41.14
64933;BME280;51446;53.850;10.662;2023-10-08T10:19:37;102562.88;;;22.98;40.50
64933;BME280;51446;53.850;10.662;2023-10-08T10:22:03;102573.22;;;21.00;45.54
64933;BME280;51446;53.850;10.662;2023-10-08T10:24:36;102571.41;;;21.90;44.61
64933;BME280;51446;53.850;10.662;2023-10-08T10:27:16;102563.25;;;22.24;43.02
64933;BME280;51446;53.850;10.662;2023-10-08T10:29:43;102567.63;;;23.66;44.52
64933;BME280;51446;53.850;10.662;2023-10-08T10:32:12;102583.84;;;20.69;46.67
64933;BME280;51446;53.850;10.662;2023-10-08T10:34:43;102583.88;;;21.72;43.28
64933;BME280;51446;53.850;10.662;2023-10-08T10:37:09;102573.16;;;20.72;45.72
64933;BME280;51446;53.850;10.662;2023-10-08T10:39:54;102593.44;;;20.33;45.77
64933;BME280;51446;53.850;10.662;2023-10-08T10:42:28;102586.28;;;22.57;43.26
64933;BME280;51446;53.850;10.662;2023-10-08T10:44:54;102590.38;;;23.18;41.03
64933;BME280;51446;53.850;10.662;2023-10-08T10:47:21;102594.31;;;22.60;40.21
64933;BME280;51446;53.850;10.662;2023-10-08T10:49:51;102601.69;;;21.42;43.02
64933;BME280;51446;53.850;10.662;2023-10-08T10:52:17;102601.63;;;20.88;48.61
64933;BME280;51446;53.850;10.662;2023-10-08T10:54:54;102582.88;;;24.38;40.89
64933;BME280;51446;53.850;10.662;2023-10-08T10:57:25;102575.66;;;24.45;36.47
64933;BME280;51446;53.850;10.662;2023-10-08T11:00:03;102576.34;;;23.85;37.06
64933;BME280;51446;53.850;10.662;2023-10-08T11:02:44;102583.91;;;21.61;39.75
64933;BME280;51446;53.850;10.662;2023-10-08T11:05:14;102573.06;;;20.49;43.16
64933;BME280;51446;53.850;10.662;2023-10-08T11:07:46;102574.59;;;19.91;45.62
64933;BME280;51446;53.850;10.662;2023-10-08T11:10:11;102563.28;;;20.38;45.06
64933;BME280;51446;53.850;10.662;2023-10-08T11:12:41;102555.16;;;20.09;48.47
64933;BME280;51446;53.850;10.662;2023-10-08T11:15:12;102546.78;;;18.57;46.67
64933;BME280;51446;53.850;10.662;2023-10-08T11:17:44;102531.13;;;19.97;43.13
64933;BME280;51446;53.850;10.662;2023-10-08T11:20:25;102532.94;;;20.05;46.94
64933;BME280;51446;53.850;10.662;2023-10-08T11:22:51;102531.22;;;20.20;50.15
64933;BME280;51446;53.850;10.662;2023-10-08T11:25:21;102518.97;;;20.87;49.02
64933;BME280;51446;53.850;10.662;2023-10-08T11:27:48;102524.97;;;20.05;50.64
64933;BME280;51446;53.850;10.662;2023-10-08T11:30:17;102528.47;;;19.98;53.25
64933;BME280;51446;53.850;10.662;2023-10-08T11:32:43;102534.09;;;20.83;48.19
64933;BME280;51446;53.850;10.662;2023-10-08T11:35:15;102540.31;;;21.38;47.24
64933;BME280;51446;53.850;10.662;2023-10-08T11:37:47;102530.44;;;20.53;48.06
64933;BME280;51446;53.850;10.662;2023-10-08T11:40:22;102534.06;;;20.80;49.60
64933;BME280;51446;53.850;10.662;2023-10-08T11:42:53;102525.19;;;20.86;49.10
64933;BME280;51446;53.850;10.662;2023-10-08T11:45:22;102529.50;;;20.36;48.88
64933;BME280;51446;53.850;10.662;2023-10-08T11:48:06;102526.91;;;21.78;45.20
64933;BME280;51446;53.850;10.662;2023-10-08T11:50:37;102531.22;;;22.19;45.00
64933;BME280;51446;53.850;10.662;2023-10-08T11:53:04;102523.47;;;23.18;40.39
64933;BME280;51446;53.850;10.662;2023-10-08T11:55:32;102527.41;;;22.68;38.83
64933;BME280;51446;53.850;10.662;2023-10-08T11:58:06;102523.38;;;21.68;45.57
64933;BME280;51446;53.850;10.662;2023-10-08T12:00:43;102518.63;;;22.43;41.12
64933;BME280;51446;53.850;10.662;2023-10-08T12:03:15;102525.81;;;22.25;46.89
64933;BME280;51446;53.850;10.662;2023-10-08T12:05:46;102534.09;;;21.29;43.38
64933;BME280;51446;53.850;10.662;2023-10-08T12:08:16;102535.22;;;22.94;41.85
64933;BME280;51446;53.850;10.662;2023-10-08T12:10:43;102535.88;;;20.89;38.05
64933;BME280;51446;53.850;10.662;2023-10-08T12:13:09;102524.31;;;21.61;40.18
64933;BME280;51446;53.850;10.662;2023-10-08T12:15:35;102530.22;;;22.45;43.27
64933;BME280;51446;53.850;10.662;2023-10-08T12:18:04;102532.31;;;23.28;44.90
64933;BME280;51446;53.850;10.662;2023-10-08T12:20:41;102538.53;;;21.61;41.72
64933;BME280;51446;53.850;10.662;2023-10-08T12:23:11;102536.41;;;22.56;45.09
64933;BME280;51446;53.850;10.662;2023-10-08T12:25:39;102531.41;;;21.54;44.25
64933;BME280;51446;53.850;10.662;2023-10-08T12:28:04;102538.53;;;20.93;45.43
64933;BME280;51446;53.850;10.662;2023-10-08T12:30:31;102531.31;;;20.48;46.66
64933;BME280;51446;53.850;10.662;2023-10-08T12:32:58;102529.56;;;20.62;46.40
64933;BME280;51446;53.850;10.662;2023-10-08T12:35:24;102517.91;;;20.18;42.11
64933;BME280;51446;53.850;10.662;2023-10-08T12:37:52;102510.69;;;19.91;49.40
64933;BME280;51446;53.850;10.662;2023-10-08T12:40:19;102519.00;;;19.13;48.75
64933;BME280;51446;53.850;10.662;2023-10-08T12:42:51;102507.03;;;18.63;46.37
64933;BME280;51446;53.850;10.662;2023-10-08T12:45:16;102508.34;;;19.08;45.06
64933;BME280;51446;53.850;10.662;2023-10-08T12:47:52;102511.94;;;19.15;50.23
64933;BME280;51446;53.850;10.662;2023-10-08T12:50:18;102517.13;;;18.98;54.27
64933;BME280;51446;53.850;10.662;2023-10-08T12:52:54;102522.50;;;19.05;50.99
64933;BME280;51446;53.850;10.662;2023-10-08T12:55:21;102533.66;;;18.70;50.64
64933;BME280;51446;53.850;10.662;2023-10-08T12:57:52;102531.88;;;18.69;47.88
64933;BME280;51446;53.850;10.662;2023-10-08T13:00:22;102530.56;;;18.32;49.38
64933;BME280;51446;53.850;10.662;2023-10-08T13:02:49;102537.09;;;18.59;48.32